Philadelphia, MO

7:15 AM CDT on October 23, 2014 (GMT -0500)
Marion Co RII Fire Station | Change Station
CLOSE
Current Station
Personal Weather Station
Location: Philadelphia, MO
Elevation: 705 ft
Nearby Weather Stations

Elev 705 ft 39.84 °N, 91.73 °W | Updated 30 seconds ago

Partly Cloudy
Partly Cloudy
48.7 °F
Feels Like 46 °F
N
6.0
Wind Variable Wind from WSW
Gusts 9.0 mph

Today
High -- | Low -- °F
--% Chance of Precip.
Yesterday
High -- | Low -- °F
Precip. -- in
7:25 AM 6:16 PM
Waning Crescent, 0% visible
Pressure 30.16 in
Visibility 10.0 miles
Clouds Clear
Windchill 46 °F
Dew Point 44 °F
Humidity 83%
Rainfall 0.00 in
Snow Depth Not available.
UV 0 out of 12
Pollen .90 out of 12
Air Quality Not available.
Flu Activity No Activity
METAR KHAE 231155Z AUTO 16005KT 10SM CLR 08/04 A3016 RMK AO2

More Conditions Fewer Conditions

Pressure 30.16 in
Visibility 10.0 miles
Clouds Clear
Windchill 46 °F
Dew Point 44 °F
Humidity 83%
Rainfall 0.00 in
Snow Depth Not available.
UV 0 out of 12
Pollen .90 out of 12
Air Quality Not available.
Flu Activity No Activity
METAR KHAE 231155Z AUTO 16005KT 10SM CLR 08/04 A3016 RMK AO2

More Conditions Fewer Conditions

10-Day Weather Forecast

Almanac

Astronomy

Oct. 23, 2014 Rise Set
Actual Time 7:25 AM CDT 6:16 PM CDT
Civil Twilight 6:58 AM CDT 6:43 PM CDT
Nautical Twilight 6:26 AM CDT 7:15 PM CDT
Astronomical Twilight 5:55 AM CDT 7:46 PM CDT
Moon 7:05 AM CDT 6:18 PM CDT
Length of Visible Light 11h 45m
Length of Day
10h 50m
Tomorrow will be 2m 26s shorter.
Waning Crescent, 0% of the Moon is Illuminated
Today
Waning Crescent
Oct 23
New
Oct 30
First Quarter
Nov 6
Full
Nov 14
Last Quarter

Today's Extremes

State Highs State Lows

Community

WunderPhotos

Upload Photos

1,764,211 photos uploaded!

WunderBlogs® & News

Nearby

Snow Depth

Station Depth Elevation
No new snow has been reported.

Earthquake Activity

City Distance Mag. Time & Date
No recent earthquake activity has been reported nearby.
Minimum magnitude displayed is 2.5.

Coastal Water Temperatures

Place Temperature
No Stations Reporting

Nearby Weather Stations